createdAt,value
2019-05-15T00:00:19.535Z,62.60
2019-05-15T00:05:32.959Z,62.50
2019-05-15T00:10:39.980Z,63.20
2019-05-15T00:15:48.000Z,63.70
2019-05-15T00:20:52.584Z,64.20
2019-05-15T00:25:58.761Z,64.50
2019-05-15T00:31:09.090Z,65.50
2019-05-15T00:36:15.019Z,66.30
2019-05-15T00:41:19.748Z,66.30
2019-05-15T00:46:28.894Z,66.20
2019-05-15T00:51:30.609Z,67.30
2019-05-15T00:56:35.112Z,67.60
2019-05-15T01:01:40.327Z,69.30
2019-05-15T01:06:50.872Z,68.40
2019-05-15T01:11:58.721Z,68.80
2019-05-15T01:17:08.845Z,69.40
2019-05-15T01:22:14.033Z,69.50
2019-05-15T01:27:19.271Z,70.00
2019-05-15T01:32:25.300Z,70.60
2019-05-15T01:37:29.880Z,69.80
2019-05-15T01:42:34.428Z,70.90
2019-05-15T01:47:39.212Z,71.30
2019-05-15T01:52:43.864Z,71.40
2019-05-15T01:57:49.104Z,71.40
2019-05-15T02:02:53.763Z,72.00
2019-05-15T02:07:59.752Z,72.40
2019-05-15T02:13:04.291Z,72.50
2019-05-15T02:18:08.810Z,72.20
2019-05-15T02:23:13.402Z,71.80
2019-05-15T02:28:19.796Z,71.80
2019-05-15T02:33:25.953Z,72.90
2019-05-15T02:38:33.841Z,73.00
2019-05-15T02:43:39.265Z,72.80
2019-05-15T02:48:48.671Z,73.50
2019-05-15T02:53:51.895Z,74.00
2019-05-15T02:58:59.877Z,74.00
2019-05-15T03:04:09.045Z,73.80
2019-05-15T03:09:12.174Z,74.20
2019-05-15T03:14:23.676Z,74.10
2019-05-15T03:19:29.889Z,74.60
2019-05-15T03:24:34.784Z,74.90
2019-05-15T03:29:53.825Z,74.90
2019-05-15T03:35:04.917Z,75.00
2019-05-15T03:40:10.843Z,75.00
2019-05-15T03:45:14.856Z,74.70
2019-05-15T03:50:19.679Z,75.50
2019-05-15T03:55:29.511Z,74.90
2019-05-15T04:00:49.554Z,74.70
2019-05-15T04:05:50.713Z,74.50
2019-05-15T04:10:59.426Z,75.00
2019-05-15T04:16:02.784Z,74.60
2019-05-15T04:21:09.577Z,74.60
2019-05-15T04:26:14.908Z,75.40
2019-05-15T04:31:19.647Z,75.00
2019-05-15T04:36:24.778Z,75.00
2019-05-15T04:41:33.086Z,75.10
2019-05-15T04:46:39.361Z,75.40
2019-05-15T04:51:43.937Z,75.40
2019-05-15T04:56:49.046Z,75.60
2019-05-15T05:02:13.018Z,75.30
2019-05-15T05:07:00.315Z,75.00
2019-05-15T05:12:04.899Z,74.70
2019-05-15T05:17:09.625Z,73.90
2019-05-15T05:22:14.241Z,73.30
2019-05-15T05:27:18.637Z,72.60
2019-05-15T05:32:34.284Z,72.30
2019-05-15T05:37:29.297Z,71.70
2019-05-15T05:42:33.954Z,71.30
2019-05-15T05:47:38.574Z,70.80
2019-05-15T05:52:43.157Z,70.10
2019-05-15T05:57:48.698Z,69.10
2019-05-15T06:02:53.304Z,69.10
2019-05-15T06:07:58.218Z,68.10
2019-05-15T06:13:02.810Z,67.40
2019-05-15T06:18:08.306Z,66.70
2019-05-15T06:23:12.903Z,66.10
2019-05-15T06:28:19.521Z,65.70
2019-05-15T06:33:23.456Z,65.20
2019-05-15T06:38:30.863Z,64.80
2019-05-15T06:43:58.722Z,63.60
2019-05-15T06:49:02.644Z,63.90
2019-05-15T06:54:08.763Z,62.90
2019-05-15T06:59:13.340Z,62.60
2019-05-15T07:04:18.160Z,61.90
2019-05-15T07:09:22.927Z,60.40
2019-05-15T07:14:28.835Z,60.50
2019-05-15T07:19:33.391Z,60.40
2019-05-15T07:24:39.417Z,59.90
2019-05-15T07:29:43.813Z,59.00
2019-05-15T07:34:48.444Z,58.00
2019-05-15T07:39:52.913Z,57.00
2019-05-15T07:44:58.864Z,57.10
2019-05-15T07:50:08.836Z,56.30
2019-05-15T07:55:13.846Z,53.40
2019-05-15T08:00:20.073Z,53.30
2019-05-15T08:05:24.666Z,52.20
2019-05-15T08:10:29.180Z,51.90
2019-05-15T08:15:33.746Z,50.40
2019-05-15T08:20:38.589Z,50.30
2019-05-15T08:25:43.118Z,50.00
2019-05-15T08:30:49.323Z,49.00
2019-05-15T08:35:55.139Z,47.70
2019-05-15T08:40:59.540Z,47.40
2019-05-15T08:46:03.954Z,45.70
2019-05-15T08:51:08.884Z,45.80
2019-05-15T08:56:14.824Z,44.70
2019-05-15T09:01:19.428Z,45.00
2019-05-15T09:06:23.823Z,44.40
2019-05-15T09:11:28.452Z,43.20
2019-05-15T09:16:32.908Z,42.70
2019-05-15T09:21:38.811Z,40.70
2019-05-15T09:26:43.414Z,41.10
2019-05-15T09:31:48.399Z,38.50
2019-05-15T09:36:54.513Z,39.20
2019-05-15T09:41:59.238Z,38.90
2019-05-15T09:47:09.170Z,37.40
2019-05-15T09:52:13.718Z,36.70
2019-05-15T09:57:18.759Z,37.80
2019-05-15T10:02:23.365Z,37.30
2019-05-15T10:07:28.592Z,36.30
2019-05-15T10:12:35.131Z,36.20
2019-05-15T10:17:39.323Z,36.80
2019-05-15T10:22:44.125Z,35.40
2019-05-15T10:27:48.948Z,34.30
2019-05-15T10:32:53.485Z,34.40
2019-05-15T10:37:59.226Z,34.20
2019-05-15T10:43:03.931Z,32.90
2019-05-15T10:48:09.398Z,30.90
2019-05-15T10:53:14.675Z,30.50
2019-05-15T10:58:22.184Z,30.00
2019-05-15T11:03:25.248Z,29.10
2019-05-15T11:08:29.649Z,29.30
2019-05-15T11:13:34.212Z,29.10
2019-05-15T11:18:53.528Z,29.20
2019-05-15T11:23:59.110Z,29.30
2019-05-15T11:29:03.666Z,27.90
2019-05-15T11:34:09.381Z,28.20
2019-05-15T11:39:13.975Z,28.20
2019-05-15T11:44:18.848Z,27.50
2019-05-15T11:49:23.269Z,27.70
2019-05-15T11:54:28.296Z,28.20
2019-05-15T11:59:32.839Z,28.00
2019-05-15T12:04:38.449Z,27.40
2019-05-15T12:09:42.963Z,27.70
2019-05-15T12:14:49.406Z,26.60
2019-05-15T12:19:56.772Z,26.80
2019-05-15T12:25:00.455Z,27.20
2019-05-15T12:30:13.659Z,27.10
2019-05-15T12:35:20.396Z,26.50
2019-05-15T13:00:53.699Z,26.00
2019-05-15T13:05:58.124Z,26.60
2019-05-15T13:11:02.692Z,26.80
2019-05-15T13:16:07.175Z,26.80
2019-05-15T13:21:11.659Z,26.20
2019-05-15T13:26:23.680Z,26.50
2019-05-15T13:31:22.173Z,25.40
2019-05-15T13:36:28.850Z,25.00
2019-05-15T13:41:32.797Z,25.50
2019-05-15T13:46:38.825Z,25.80
2019-05-15T13:51:45.062Z,25.60
2019-05-15T13:56:49.563Z,25.80
2019-05-15T14:01:54.018Z,26.00
2019-05-15T14:06:58.389Z,25.50
2019-05-15T14:12:02.780Z,25.50
2019-05-15T14:17:09.278Z,24.90
2019-05-15T14:22:13.348Z,24.90
2019-05-15T14:27:19.520Z,24.50
2019-05-15T14:32:35.531Z,25.00
2019-05-15T14:37:30.015Z,25.00
2019-05-15T14:42:34.409Z,25.10
2019-05-15T14:47:39.820Z,25.30
2019-05-15T14:52:44.227Z,25.10
2019-05-15T14:57:48.997Z,25.30
2019-05-15T15:02:53.648Z,26.10
2019-05-15T15:07:58.657Z,25.70
2019-05-15T15:13:03.299Z,25.80
2019-05-15T15:18:08.412Z,25.80
2019-05-15T15:23:13.067Z,26.30
2019-05-15T15:28:18.891Z,26.60
2019-05-15T15:33:23.577Z,26.10
2019-05-15T15:38:40.248Z,26.80
2019-05-15T15:43:34.313Z,26.70
2019-05-15T15:48:39.209Z,27.00
2019-05-15T15:53:43.822Z,27.30
2019-05-15T15:58:48.748Z,27.50
2019-05-15T16:03:53.699Z,27.00
2019-05-15T16:08:59.542Z,26.90
2019-05-15T16:14:04.601Z,26.90
2019-05-15T16:19:09.079Z,27.50
2019-05-15T16:24:17.680Z,28.10
2019-05-15T16:29:19.884Z,28.20
2019-05-15T16:34:24.354Z,28.90
2019-05-15T16:39:28.831Z,28.80
2019-05-15T16:44:33.289Z,29.50
2019-05-15T16:49:39.087Z,29.20
2019-05-15T16:54:43.777Z,28.60
2019-05-15T16:59:48.226Z,29.00
2019-05-15T17:04:52.860Z,30.00
2019-05-15T17:09:58.578Z,30.50
2019-05-15T17:15:03.395Z,30.80
2019-05-15T17:20:11.333Z,31.10
2019-05-15T17:25:18.157Z,31.00
2019-05-15T17:30:25.362Z,31.60
2019-05-15T17:35:29.765Z,31.70
2019-05-15T17:40:34.297Z,31.70
2019-05-15T17:45:39.264Z,31.60
2019-05-15T17:50:49.012Z,31.70
2019-05-15T17:55:49.879Z,32.10
2019-05-15T18:00:54.358Z,32.50
2019-05-15T18:05:59.399Z,32.50
2019-05-15T18:11:03.907Z,31.80
2019-05-15T18:16:13.390Z,32.40
2019-05-15T18:21:14.555Z,32.60
2019-05-15T18:26:19.193Z,32.80
2019-05-15T18:31:23.698Z,32.90
2019-05-15T18:36:28.498Z,33.20
2019-05-15T18:41:34.755Z,33.70
2019-05-15T18:46:39.218Z,34.00
2019-05-15T18:51:43.916Z,34.50
2019-05-15T18:56:48.969Z,34.70
2019-05-15T19:01:53.816Z,34.70
2019-05-15T19:06:58.408Z,35.00
2019-05-15T19:12:02.911Z,35.30
2019-05-15T19:17:08.213Z,35.50
2019-05-15T19:22:12.806Z,35.80
2019-05-15T19:27:18.752Z,36.10
2019-05-15T19:32:23.492Z,36.20
2019-05-15T19:37:28.759Z,36.50
2019-05-15T19:42:59.106Z,37.20
2019-05-15T19:48:26.439Z,37.60
2019-05-15T19:53:36.869Z,38.00
2019-05-15T19:58:53.025Z,38.30
2019-05-15T20:04:08.782Z,38.60
2019-05-15T20:09:14.390Z,38.90
2019-05-15T20:14:30.666Z,39.10
2019-05-15T20:19:39.427Z,39.70
2019-05-15T20:25:10.144Z,39.80
2019-05-15T20:30:19.666Z,40.10
2019-05-15T20:35:28.391Z,40.00
2019-05-15T20:40:35.966Z,40.50
2019-05-15T20:50:59.184Z,41.10
2019-05-15T20:56:05.303Z,41.30
2019-05-15T21:01:10.765Z,41.60
2019-05-15T21:06:17.741Z,41.70
2019-05-15T21:11:22.746Z,42.00
2019-05-15T21:16:28.046Z,42.20
2019-05-15T21:21:35.750Z,42.50
2019-05-15T21:26:42.170Z,42.40
2019-05-15T21:31:49.678Z,42.50
2019-05-15T21:36:59.076Z,42.40
2019-05-15T21:42:08.850Z,42.50
2019-05-15T21:47:22.944Z,42.70
2019-05-15T21:52:39.200Z,42.70
2019-05-15T21:57:45.164Z,42.90
2019-05-15T22:02:50.004Z,43.00
2019-05-15T22:07:58.487Z,43.40
2019-05-15T22:13:05.235Z,43.40
2019-05-15T22:18:11.491Z,43.70
2019-05-15T22:23:19.622Z,44.00
2019-05-15T22:28:28.217Z,44.80
2019-05-15T22:33:32.384Z,44.40
2019-05-15T22:38:38.464Z,44.80
2019-05-15T22:43:43.134Z,45.00
2019-05-15T22:48:50.538Z,45.00
2019-05-15T22:53:55.500Z,45.30
2019-05-15T22:59:01.234Z,45.90
2019-05-15T23:04:05.846Z,46.30
2019-05-15T23:09:13.899Z,47.20
2019-05-15T23:14:18.688Z,47.80
2019-05-15T23:19:23.203Z,48.20
2019-05-15T23:24:28.234Z,48.60
2019-05-15T23:29:32.958Z,49.50
2019-05-15T23:34:38.818Z,49.50
2019-05-15T23:39:48.561Z,50.00
2019-05-15T23:44:53.540Z,50.10
2019-05-15T23:49:58.150Z,50.70
2019-05-15T23:55:08.616Z,51.70
